To NAV CANADA Home Page Login to a new session Search on AWWS site Feedback and Comments Disclaimer Vers la page française équivalente Tips FAQ What's new on the site To the Forecasts and Observations / NOTAM section To "File a Flight Plan" website Publications and other links Update of the User's profile FIC Telephone Numbers My Weather Data Folder Route Weather Data Regional Weather Data Local Weather Data To the Forecasts and Observations / NOTAM section
Request Generated 03/01/2015 at 15:05:31 UTC . Weather information available at that time is displayed.

METAR/TAF

SCHEFFERVILLE/QC    (show WxCam)

METAR CYKL 011500Z AUTO 23011G16KT 9SM SCT055 M16/M20 A2996 RMK
SLP201=
METAR CYKL 011400Z AUTO 24014G21KT 9SM FEW044 M18/M21 A2997 RMK
SLP207=
SPECI CYKL 011316Z AUTO 25017G23KT 6SM HZ FEW012 M19/M22 A2997 RMK
SLP208=
SPECI CYKL 011309Z AUTO 24012G18KT 5SM HZ SCT015 M19/M22 A2997 RMK
SLP211=
METAR CYKL 011300Z AUTO 24010G15KT 9SM SCT021 M19/M22 A2998 RMK
SLP212=

TAF CYKL 011338Z 0114/0202 25012G22KT P6SM SCT020 TEMPO 0114/0202 2SM
-SN IC BKN020
RMK FCST BASED ON AUTO OBS. NXT FCST BY 012000Z=
Your time UTC time
Weather data provided by Environment Canada and NAV CANADA